Time;durP1;ratioP1;P1;durP2;ratioP2;P2;SDS_P1;SDS_P2;PMS_P1;PMS_P2;Temp;Humidity;BMP_temperature;BMP_pressure;BME280_temperature;BME280_humidity;BME280_pressure;Samples;Min_cycle;Max_cycle;Signal;HPM_P1;HPM_P2
2023/01/10 00:01:32;;;;;;;21.52;3.53;;;5.80;99.90;;;;;;5071966;28;20047;-69
2023/01/10 00:03:58;;;;;;;17.50;3.45;;;5.80;99.90;;;;;;5071592;28;20128;-69
2023/01/10 00:06:23;;;;;;;24.25;3.97;;;5.80;99.90;;;;;;5073419;28;20036;-69
2023/01/10 00:08:49;;;;;;;22.30;3.33;;;5.80;99.90;;;;;;5071786;28;20078;-69
2023/01/10 00:13:59;;;;;;;13.98;2.85;;;5.80;99.90;;;;;;5071869;28;20049;-69
2023/01/10 00:16:24;;;;;;;21.88;3.30;;;5.70;99.90;;;;;;5071819;28;20033;-69
2023/01/10 00:18:50;;;;;;;19.80;3.45;;;5.80;99.90;;;;;;5071741;28;20040;-69
2023/01/10 00:21:15;;;;;;;13.60;2.33;;;5.70;99.90;;;;;;5055383;28;20106;-69
2023/01/10 00:23:43;;;;;;;20.88;3.00;;;5.80;99.90;;;;;;5072001;28;20102;-69
2023/01/10 00:26:08;;;;;;;18.40;2.88;;;5.80;99.90;;;;;;5071700;28;20525;-69
2023/01/10 00:28:34;;;;;;;17.30;2.22;;;5.80;99.90;;;;;;5071574;28;20087;-69
2023/01/10 00:31:03;;;;;;;22.52;3.10;;;5.70;99.90;;;;;;5071708;28;20040;-69
2023/01/10 00:33:30;;;;;;;19.52;2.78;;;5.80;99.90;;;;;;5071872;28;20123;-69
2023/01/10 00:35:56;;;;;;;18.35;3.42;;;5.70;99.90;;;;;;5071646;28;20481;-69
2023/01/10 00:38:22;;;;;;;19.17;2.97;;;5.70;99.90;;;;;;5071546;28;20159;-69
2023/01/10 00:40:48;;;;;;;19.67;3.10;;;5.80;99.90;;;;;;5071524;28;20127;-69
2023/01/10 00:45:57;;;;;;;20.33;3.25;;;5.80;99.90;;;;;;5071553;28;20501;-69
2023/01/10 00:48:23;;;;;;;24.98;3.58;;;5.80;99.90;;;;;;5071287;28;20040;-69
2023/01/10 00:50:49;;;;;;;19.27;3.08;;;5.80;99.90;;;;;;5071808;28;20028;-69
2023/01/10 00:53:15;;;;;;;22.52;3.92;;;5.80;99.90;;;;;;5071446;28;20507;-69
2023/01/10 00:55:41;;;;;;;17.55;3.03;;;5.90;99.90;;;;;;5071673;28;20068;-69
2023/01/10 00:58:10;;;;;;;21.23;3.65;;;5.90;99.90;;;;;;5071346;28;20072;-69
2023/01/10 01:00:37;;;;;;;21.25;3.60;;;5.90;99.90;;;;;;5071396;28;20493;-69
2023/01/10 01:03:05;;;;;;;19.52;3.50;;;5.90;99.90;;;;;;5055114;28;20135;-69
2023/01/10 01:05:30;;;;;;;22.50;3.25;;;5.90;99.90;;;;;;5071333;28;20076;-69
2023/01/10 01:07:56;;;;;;;26.85;4.57;;;5.90;99.90;;;;;;5072008;28;20489;-69
2023/01/10 01:10:27;;;;;;;24.70;4.28;;;5.90;99.90;;;;;;5071316;28;20048;-69
2023/01/10 01:12:57;;;;;;;20.60;3.28;;;5.90;99.90;;;;;;5054562;28;20440;-69
2023/01/10 01:15:24;;;;;;;20.50;3.08;;;5.90;99.90;;;;;;5073474;28;20067;-69
2023/01/10 01:17:49;;;;;;;20.33;3.53;;;5.90;99.90;;;;;;5075137;28;20080;-69
2023/01/10 01:20:15;;;;;;;23.15;3.42;;;5.90;99.90;;;;;;5076162;28;20513;-69
2023/01/10 01:22:41;;;;;;;17.13;3.10;;;6.00;99.90;;;;;;5075112;28;20045;-70
2023/01/10 01:25:07;;;;;;;21.55;3.03;;;5.90;99.90;;;;;;5074792;28;20512;-70
2023/01/10 01:27:33;;;;;;;18.50;3.78;;;6.00;99.90;;;;;;5074652;28;20571;-69
2023/01/10 01:30:00;;;;;;;27.50;4.43;;;6.00;99.90;;;;;;5075001;28;20102;-69
2023/01/10 01:32:26;;;;;;;25.45;3.40;;;6.10;99.90;;;;;;5074680;28;20037;-69
2023/01/10 01:34:51;;;;;;;18.52;3.10;;;6.10;99.90;;;;;;5074902;28;20041;-69
2023/01/10 01:37:18;;;;;;;27.83;3.70;;;6.10;99.90;;;;;;5074767;28;20052;-69
2023/01/10 01:39:47;;;;;;;19.92;3.20;;;6.10;99.90;;;;;;5074518;28;20036;-69
2023/01/10 01:42:28;;;;;;;18.55;3.42;;;6.10;99.90;;;;;;5075739;28;20051;-69
2023/01/10 01:45:35;;;;;;;18.92;2.92;;;6.10;99.90;;;;;;5074440;28;20044;-69
2023/01/10 01:48:33;;;;;;;16.45;3.10;;;6.00;99.90;;;;;;5074300;28;20040;-69
2023/01/10 01:51:11;;;;;;;15.90;2.75;;;6.10;99.90;;;;;;5052012;28;20048;-69
2023/01/10 01:53:45;;;;;;;20.98;3.88;;;6.00;99.90;;;;;;5057562;28;20036;-69
2023/01/10 01:56:24;;;;;;;21.10;3.20;;;6.00;99.90;;;;;;5074324;28;20046;-71
2023/01/10 01:58:52;;;;;;;19.65;3.50;;;6.00;99.90;;;;;;5074778;28;20397;-69
2023/01/10 02:01:20;;;;;;;15.10;2.85;;;6.00;99.90;;;;;;5074115;28;20083;-69
2023/01/10 02:03:49;;;;;;;19.73;3.10;;;5.90;99.90;;;;;;5074128;28;20044;-69
2023/01/10 02:06:17;;;;;;;27.25;4.10;;;5.90;99.90;;;;;;5074079;28;20047;-69
2023/01/10 02:08:49;;;;;;;21.95;3.53;;;5.90;99.90;;;;;;5073893;28;20456;-69
2023/01/10 02:11:15;;;;;;;25.08;3.42;;;5.90;99.90;;;;;;5057363;28;20079;-69
2023/01/10 02:13:42;;;;;;;21.10;3.17;;;5.90;99.90;;;;;;5057542;28;20071;-69
2023/01/10 02:16:08;;;;;;;15.35;2.75;;;5.90;99.90;;;;;;5074114;28;20071;-69
2023/01/10 02:18:36;;;;;;;17.42;3.05;;;5.90;99.90;;;;;;5057137;28;20076;-69
2023/01/10 02:21:23;;;;;;;14.15;2.67;;;5.90;99.90;;;;;;5073771;28;20052;-69
2023/01/10 02:24:19;;;;;;;20.10;2.92;;;5.90;99.90;;;;;;5073793;28;20044;-69
2023/01/10 02:27:19;;;;;;;22.02;3.00;;;5.80;99.90;;;;;;5073503;28;20505;-69
2023/01/10 02:29:50;;;;;;;22.02;3.13;;;5.80;99.90;;;;;;5073680;28;20603;-69
2023/01/10 02:32:24;;;;;;;25.42;4.28;;;5.70;99.90;;;;;;5073872;28;20044;-69
2023/01/10 02:35:11;;;;;;;26.98;4.18;;;5.70;99.90;;;;;;5073575;28;20047;-69
2023/01/10 02:38:00;;;;;;;21.17;3.25;;;5.70;99.90;;;;;;5073410;28;20048;-69
2023/01/10 02:40:46;;;;;;;19.77;3.22;;;5.60;99.90;;;;;;5073340;28;20040;-69
2023/01/10 02:43:17;;;;;;;23.70;3.90;;;5.60;99.90;;;;;;5073663;28;20048;-69
2023/01/10 02:46:01;;;;;;;17.10;2.92;;;5.60;99.90;;;;;;5073295;28;20055;-69
2023/01/10 02:48:26;;;;;;;23.80;3.90;;;5.60;99.90;;;;;;5072997;28;20071;-69
2023/01/10 02:51:03;;;;;;;22.40;3.22;;;5.60;99.90;;;;;;5073494;28;20037;-69
2023/01/10 02:53:37;;;;;;;18.70;3.17;;;5.60;99.90;;;;;;5073409;28;20052;-69
2023/01/10 02:56:14;;;;;;;24.50;3.17;;;5.50;99.90;;;;;;5073116;28;20048;-69
2023/01/10 02:59:21;;;;;;;30.42;4.28;;;5.50;99.90;;;;;;5074478;28;20044;-69
2023/01/10 03:02:06;;;;;;;22.95;3.75;;;5.60;99.90;;;;;;5038460;28;20052;-69
2023/01/10 03:04:54;;;;;;;20.17;2.95;;;5.50;99.90;;;;;;5073204;28;20048;-69
2023/01/10 03:07:47;;;;;;;20.38;2.90;;;5.50;99.90;;;;;;5072952;28;20075;-69
2023/01/10 03:10:22;;;;;;;16.52;3.20;;;5.50;99.90;;;;;;5073153;28;20040;-69
2023/01/10 03:13:23;;;;;;;21.33;2.85;;;5.50;99.90;;;;;;5072839;28;20054;-69
2023/01/10 03:15:51;;;;;;;20.42;3.25;;;5.60;99.90;;;;;;5072736;28;20098;-69
2023/01/10 03:18:27;;;;;;;20.25;3.60;;;5.70;99.90;;;;;;5072857;28;20052;-69
2023/01/10 03:20:55;;;;;;;25.70;3.65;;;5.70;99.90;;;;;;5072596;28;20052;-69
2023/01/10 03:23:21;;;;;;;13.73;3.15;;;5.80;99.90;;;;;;5072555;28;20080;-69
2023/01/10 03:25:49;;;;;;;23.55;3.83;;;5.80;99.90;;;;;;5072493;28;20052;-69
2023/01/10 03:28:24;;;;;;;18.65;3.88;;;5.80;99.90;;;;;;5072330;28;20044;-69
2023/01/10 03:31:08;;;;;;;14.95;3.05;;;5.80;99.90;;;;;;5055827;28;20032;-69
2023/01/10 03:33:35;;;;;;;20.75;3.33;;;5.70;99.90;;;;;;5072435;28;20045;-69
2023/01/10 03:36:06;;;;;;;17.95;3.50;;;5.80;99.90;;;;;;5072330;28;20036;-69
2023/01/10 03:38:44;;;;;;;22.35;4.10;;;5.80;99.90;;;;;;5072263;28;20048;-69
2023/01/10 03:41:22;;;;;;;22.73;3.83;;;5.70;99.90;;;;;;5072525;28;20106;-69
2023/01/10 03:47:20;;;;;;;25.90;4.07;;;5.70;99.90;;;;;;5072106;28;20088;-69
2023/01/10 03:49:52;;;;;;;21.45;4.00;;;5.80;99.90;;;;;;5072269;28;20182;-69
2023/01/10 03:52:19;;;;;;;23.65;3.58;;;5.80;99.90;;;;;;5072215;28;20048;-69
2023/01/10 03:54:46;;;;;;;17.88;3.95;;;5.80;99.90;;;;;;5072092;28;20037;-69
2023/01/10 03:57:18;;;;;;;23.73;4.60;;;5.80;99.90;;;;;;5071966;28;20459;-69
2023/01/10 03:59:44;;;;;;;22.83;3.58;;;5.80;99.90;;;;;;5072277;28;20052;-69
2023/01/10 04:02:09;;;;;;;21.38;4.22;;;5.80;99.90;;;;;;5073493;28;20404;-69
2023/01/10 04:04:35;;;;;;;23.45;3.83;;;5.80;99.90;;;;;;5071925;28;20044;-69
2023/01/10 04:07:01;;;;;;;20.77;3.78;;;5.80;99.90;;;;;;5071780;28;20040;-69
2023/01/10 04:09:26;;;;;;;22.30;3.72;;;5.80;99.90;;;;;;5071920;28;20036;-69
2023/01/10 04:11:52;;;;;;;22.20;4.10;;;5.80;99.90;;;;;;5071876;28;20115;-69
2023/01/10 04:14:17;;;;;;;20.23;3.58;;;5.80;99.90;;;;;;5071873;28;20082;-69
2023/01/10 04:16:43;;;;;;;20.92;3.20;;;5.70;99.90;;;;;;5071846;28;20044;-69
2023/01/10 04:19:09;;;;;;;19.67;3.20;;;5.80;99.90;;;;;;5071975;28;20052;-69
2023/01/10 04:21:34;;;;;;;17.70;3.00;;;5.70;99.90;;;;;;5071785;28;20405;-69
2023/01/10 04:24:00;;;;;;;18.70;3.10;;;5.70;99.90;;;;;;5072049;28;20044;-69
2023/01/10 04:26:25;;;;;;;15.57;3.10;;;5.70;99.90;;;;;;5071753;28;20505;-69
2023/01/10 04:28:51;;;;;;;20.70;3.63;;;5.70;99.90;;;;;;5071621;28;20102;-69
2023/01/10 04:31:17;;;;;;;21.25;3.40;;;5.80;99.90;;;;;;5071680;28;20450;-69
2023/01/10 04:33:42;;;;;;;19.88;3.65;;;5.80;99.90;;;;;;5071971;28;20087;-69
2023/01/10 04:36:08;;;;;;;16.35;3.83;;;5.80;99.90;;;;;;5071657;28;20569;-69
2023/01/10 04:38:33;;;;;;;21.73;4.13;;;5.80;99.90;;;;;;5071854;28;20036;-69
2023/01/10 04:40:59;;;;;;;18.38;4.07;;;5.80;99.90;;;;;;5071617;28;20493;-69
2023/01/10 04:43:24;;;;;;;20.27;4.07;;;5.80;99.90;;;;;;5071608;28;20040;-69
2023/01/10 04:45:51;;;;;;;21.02;4.82;;;5.80;99.90;;;;;;5071794;28;20042;-69
2023/01/10 04:48:17;;;;;;;21.23;4.60;;;5.80;99.90;;;;;;5071299;28;20093;-69
2023/01/10 04:50:47;;;;;;;24.77;4.25;;;5.80;99.90;;;;;;5072583;28;20036;-69
2023/01/10 04:53:12;;;;;;;20.42;4.30;;;5.90;99.90;;;;;;5075440;28;20401;-69
2023/01/10 04:55:38;;;;;;;24.38;4.85;;;5.90;99.90;;;;;;5075386;28;20040;-69
2023/01/10 04:58:04;;;;;;;24.17;4.63;;;6.00;99.90;;;;;;5076551;28;20037;-69
2023/01/10 05:00:29;;;;;;;23.73;4.35;;;6.00;99.90;;;;;;5075305;28;20497;-69
2023/01/10 05:02:56;;;;;;;25.88;4.53;;;5.90;99.90;;;;;;5075534;28;20044;-69
2023/01/10 05:05:22;;;;;;;23.65;5.00;;;5.90;99.90;;;;;;5075496;28;20497;-69
2023/01/10 05:07:47;;;;;;;25.08;4.85;;;5.90;99.90;;;;;;5075027;28;20041;-69
2023/01/10 05:10:13;;;;;;;21.92;4.15;;;5.90;99.90;;;;;;5075357;28;20052;-69
2023/01/10 05:12:39;;;;;;;25.85;4.22;;;5.90;99.90;;;;;;5075321;28;20059;-69
2023/01/10 05:15:05;;;;;;;20.35;4.45;;;5.90;99.90;;;;;;5074994;28;20505;-69
2023/01/10 05:17:31;;;;;;;25.58;4.35;;;5.80;99.90;;;;;;5075097;28;20055;-69
2023/01/10 05:19:56;;;;;;;24.17;4.22;;;5.90;99.90;;;;;;5074913;28;20036;-69
2023/01/10 05:22:22;;;;;;;25.40;4.65;;;5.80;99.90;;;;;;5074862;28;20051;-69
2023/01/10 05:24:47;;;;;;;20.05;3.60;;;5.80;99.90;;;;;;5075176;28;20083;-69
2023/01/10 05:27:13;;;;;;;25.08;5.05;;;5.80;99.90;;;;;;5075859;28;20086;-69
2023/01/10 05:29:38;;;;;;;29.05;4.55;;;5.80;99.90;;;;;;5058122;28;20037;-69
2023/01/10 05:32:04;;;;;;;22.48;4.30;;;5.80;99.90;;;;;;5058326;28;20059;-69
2023/01/10 05:34:30;;;;;;;28.92;4.95;;;5.80;99.90;;;;;;5074678;28;20516;-69
2023/01/10 05:36:55;;;;;;;23.17;4.60;;;5.80;99.90;;;;;;5074910;28;20032;-69
2023/01/10 05:39:21;;;;;;;36.47;5.10;;;5.80;99.90;;;;;;5074551;28;20481;-69
2023/01/10 05:41:47;;;;;;;22.90;4.18;;;5.80;99.90;;;;;;5074582;28;20040;-69
2023/01/10 05:44:12;;;;;;;31.77;4.88;;;5.80;99.90;;;;;;5074482;28;20047;-69
2023/01/10 05:46:38;;;;;;;30.60;4.55;;;5.80;99.90;;;;;;5074508;28;20072;-69
2023/01/10 05:49:03;;;;;;;31.65;4.40;;;5.90;99.90;;;;;;5074207;28;20048;-69
2023/01/10 05:51:29;;;;;;;25.63;3.95;;;5.90;99.90;;;;;;5074418;28;20098;-69
2023/01/10 05:53:55;;;;;;;24.35;4.32;;;5.90;99.90;;;;;;5074583;28;20158;-69
2023/01/10 05:56:20;;;;;;;30.30;5.47;;;6.00;99.90;;;;;;5074292;28;20082;-69
2023/01/10 05:58:46;;;;;;;30.20;4.43;;;6.00;99.90;;;;;;5074153;28;20067;-69
2023/01/10 06:01:11;;;;;;;28.20;4.63;;;6.00;99.90;;;;;;5074127;28;20047;-68
2023/01/10 06:03:37;;;;;;;33.65;5.60;;;6.00;99.90;;;;;;5072985;28;20049;-69
2023/01/10 06:06:03;;;;;;;26.52;4.60;;;6.10;99.90;;;;;;5074125;28;20114;-69
2023/01/10 06:08:29;;;;;;;30.20;5.22;;;6.10;99.90;;;;;;5073921;28;20124;-69
2023/01/10 06:10:54;;;;;;;23.77;4.40;;;6.10;99.90;;;;;;5074023;28;20124;-69
2023/01/10 06:13:21;;;;;;;25.80;4.85;;;6.10;99.90;;;;;;5075505;28;20037;-69
2023/01/10 06:15:47;;;;;;;21.73;4.25;;;6.10;99.90;;;;;;5073923;28;20524;-70
2023/01/10 06:18:13;;;;;;;21.15;3.90;;;6.10;99.90;;;;;;5074076;28;20052;-69
2023/01/10 06:20:40;;;;;;;17.45;3.38;;;6.00;99.90;;;;;;5075625;28;20049;-69
2023/01/10 06:23:05;;;;;;;16.85;3.00;;;6.10;99.90;;;;;;5074037;28;20045;-69
2023/01/10 06:25:33;;;;;;;20.65;3.72;;;6.10;99.90;;;;;;5073995;28;20446;-69
2023/01/10 06:27:58;;;;;;;19.52;3.80;;;6.10;99.90;;;;;;5056835;28;20048;-69
2023/01/10 06:30:24;;;;;;;17.13;3.28;;;6.00;99.90;;;;;;5073654;28;20047;-69
2023/01/10 06:32:49;;;;;;;14.48;3.20;;;6.00;99.90;;;;;;5074823;28;20037;-69
2023/01/10 06:35:16;;;;;;;15.70;3.45;;;6.00;99.90;;;;;;5075323;28;20106;-69
2023/01/10 06:37:42;;;;;;;14.45;3.92;;;6.00;99.90;;;;;;5073438;28;20509;-69
2023/01/10 06:40:10;;;;;;;17.50;3.28;;;6.00;99.90;;;;;;5073431;28;20075;-69
2023/01/10 06:42:35;;;;;;;23.45;4.40;;;5.90;99.90;;;;;;5073316;28;20047;-69
2023/01/10 06:45:03;;;;;;;26.77;6.10;;;5.90;99.90;;;;;;5073354;28;20037;-69
2023/01/10 06:47:29;;;;;;;31.75;6.22;;;5.90;99.90;;;;;;5073369;28;20040;-69
2023/01/10 06:49:54;;;;;;;22.17;4.45;;;5.80;99.90;;;;;;5073305;28;20452;-69
2023/01/10 06:52:20;;;;;;;27.38;5.40;;;5.80;99.90;;;;;;5073217;28;20075;-69
2023/01/10 06:54:45;;;;;;;25.38;5.45;;;5.90;99.90;;;;;;5056430;28;20040;-69
2023/01/10 06:57:11;;;;;;;37.38;6.03;;;5.80;99.90;;;;;;5074280;28;20043;-69
2023/01/10 06:59:36;;;;;;;37.22;6.05;;;5.80;99.90;;;;;;5073046;28;20040;-69
2023/01/10 07:02:02;;;;;;;35.20;5.97;;;5.90;99.90;;;;;;5072976;28;20111;-69
2023/01/10 07:04:27;;;;;;;33.33;6.28;;;5.90;99.90;;;;;;5072928;28;20047;-69
2023/01/10 07:06:53;;;;;;;30.92;5.50;;;5.80;99.90;;;;;;5072856;28;20119;-68
2023/01/10 07:09:18;;;;;;;34.53;5.68;;;5.80;99.90;;;;;;5072714;28;20078;-68
2023/01/10 07:11:44;;;;;;;32.92;6.45;;;5.80;99.90;;;;;;5072779;28;20064;-68
2023/01/10 07:14:10;;;;;;;34.95;6.03;;;5.70;99.90;;;;;;5072451;28;20032;-69
2023/01/10 07:16:35;;;;;;;33.03;5.25;;;5.70;99.90;;;;;;5072694;28;20036;-69
2023/01/10 07:19:01;;;;;;;33.65;5.18;;;5.60;99.90;;;;;;5072821;28;20036;-69
2023/01/10 07:21:27;;;;;;;30.48;5.18;;;5.60;99.90;;;;;;5072634;28;20566;-69
2023/01/10 07:23:52;;;;;;;22.55;4.63;;;5.60;99.90;;;;;;5055914;28;20051;-69
2023/01/10 07:26:18;;;;;;;33.72;5.75;;;5.50;99.90;;;;;;5072811;28;20119;-69
2023/01/10 07:28:51;;;;;;;37.28;5.57;;;5.50;99.90;;;;;;5073821;28;20044;-69
2023/01/10 07:31:22;;;;;;;27.33;5.32;;;5.50;99.90;;;;;;5072547;28;20044;-69
2023/01/10 07:33:48;;;;;;;35.95;6.15;;;5.50;99.90;;;;;;5072491;28;20085;-69
2023/01/10 07:36:14;;;;;;;36.60;6.00;;;5.40;99.90;;;;;;5055906;28;20040;-69
2023/01/10 07:38:39;;;;;;;29.00;5.20;;;5.50;99.90;;;;;;5073489;28;20084;-69
2023/01/10 07:41:05;;;;;;;29.90;5.47;;;5.50;99.90;;;;;;5073780;28;20097;-69
2023/01/10 07:43:31;;;;;;;22.98;5.25;;;5.50;99.90;;;;;;5072296;28;20068;-69
2023/01/10 07:45:58;;;;;;;35.67;5.40;;;5.50;99.90;;;;;;5072414;28;20102;-69
2023/01/10 07:48:24;;;;;;;36.08;6.13;;;5.50;99.90;;;;;;5073664;28;20059;-69
2023/01/10 07:50:58;;;;;;;27.92;5.53;;;5.50;99.90;;;;;;5072754;28;20040;-69
2023/01/10 07:53:24;;;;;;;27.48;5.55;;;5.50;99.90;;;;;;5072136;28;20044;-69
2023/01/10 07:55:49;;;;;;;30.50;5.82;;;5.60;99.90;;;;;;5072050;28;20044;-69
2023/01/10 07:58:15;;;;;;;27.20;6.15;;;5.60;99.90;;;;;;5071964;28;20051;-69
2023/01/10 08:00:41;;;;;;;24.83;4.70;;;5.60;99.90;;;;;;5071959;28;20047;-69
2023/01/10 08:03:08;;;;;;;28.58;5.60;;;5.60;99.90;;;;;;5072025;28;20040;-69
2023/01/10 08:05:34;;;;;;;30.77;5.47;;;5.60;99.90;;;;;;5072294;28;20085;-69
2023/01/10 08:08:04;;;;;;;27.00;4.75;;;5.60;99.90;;;;;;5071988;28;20532;-69
2023/01/10 08:10:30;;;;;;;30.63;5.25;;;5.60;99.90;;;;;;5071884;28;20047;-69
2023/01/10 08:12:55;;;;;;;26.42;5.20;;;5.50;99.90;;;;;;5071901;28;20040;-69
2023/01/10 08:15:21;;;;;;;30.17;5.80;;;5.60;99.90;;;;;;5071782;28;20036;-70
2023/01/10 08:17:47;;;;;;;29.88;5.38;;;5.60;99.90;;;;;;5072014;28;20044;-71
2023/01/10 08:20:12;;;;;;;37.47;6.03;;;5.60;99.90;;;;;;5071756;28;20501;-70
2023/01/10 08:22:38;;;;;;;25.00;5.68;;;5.70;99.90;;;;;;5071794;28;20094;-70
2023/01/10 08:25:04;;;;;;;34.08;6.13;;;5.70;99.90;;;;;;5071287;28;20075;-70
2023/01/10 08:27:29;;;;;;;25.73;5.30;;;5.80;99.90;;;;;;5071598;28;20085;-70
2023/01/10 08:29:55;;;;;;;28.10;4.35;;;5.70;99.90;;;;;;5071725;28;20043;-70
2023/01/10 08:32:21;;;;;;;28.10;5.15;;;5.80;99.90;;;;;;5071728;28;20045;-70
2023/01/10 08:34:47;;;;;;;22.92;5.78;;;5.80;99.90;;;;;;5072962;28;20068;-70
2023/01/10 08:37:13;;;;;;;32.83;5.90;;;5.80;99.90;;;;;;5071836;28;20490;-70
2023/01/10 08:39:38;;;;;;;36.17;6.47;;;5.80;99.90;;;;;;5071681;28;20044;-70
2023/01/10 08:42:04;;;;;;;31.90;6.07;;;5.80;99.90;;;;;;5071608;28;20059;-70
2023/01/10 08:44:30;;;;;;;32.42;6.22;;;5.90;99.90;;;;;;5071840;28;20078;-70
2023/01/10 08:46:55;;;;;;;30.55;5.68;;;6.00;99.90;;;;;;5071558;28;20485;-70
2023/01/10 08:49:21;;;;;;;33.00;5.80;;;6.10;99.90;;;;;;5071219;28;20048;-70
2023/01/10 08:51:47;;;;;;;33.88;5.85;;;6.10;99.90;;;;;;5071744;28;20121;-70
2023/01/10 08:54:12;;;;;;;24.63;5.13;;;6.10;99.90;;;;;;5071500;28;20524;-70
2023/01/10 08:56:39;;;;;;;28.30;5.43;;;6.10;99.90;;;;;;5071473;28;20076;-70
2023/01/10 08:59:05;;;;;;;29.42;5.85;;;6.00;99.90;;;;;;5071440;28;20040;-70
2023/01/10 09:01:31;;;;;;;27.17;5.65;;;6.10;99.90;;;;;;5071679;28;20052;-70
2023/01/10 09:03:56;;;;;;;23.45;5.40;;;6.00;99.90;;;;;;5071399;28;20041;-70
2023/01/10 09:06:23;;;;;;;26.75;4.93;;;6.00;99.90;;;;;;5071636;28;20048;-70
2023/01/10 09:08:49;;;;;;;28.15;4.90;;;5.90;99.90;;;;;;5071180;28;20421;-70
2023/01/10 09:11:14;;;;;;;26.02;4.65;;;6.00;99.90;;;;;;5071586;28;20048;-70
2023/01/10 09:13:41;;;;;;;30.92;4.68;;;6.00;99.90;;;;;;5071291;28;20386;-70
2023/01/10 09:16:07;;;;;;;24.63;5.50;;;6.00;99.90;;;;;;5071294;28;20037;-70
2023/01/10 09:18:33;;;;;;;33.90;5.53;;;6.10;99.90;;;;;;5071175;28;20357;-70
2023/01/10 09:20:59;;;;;;;27.38;5.03;;;6.10;99.90;;;;;;5071224;28;20056;-70
2023/01/10 09:23:25;;;;;;;30.85;5.78;;;6.10;99.90;;;;;;5071238;28;20435;-70
2023/01/10 09:25:54;;;;;;;40.00;6.13;;;6.20;99.90;;;;;;5071222;28;20089;-70
2023/01/10 09:28:23;;;;;;;28.63;5.38;;;6.20;99.90;;;;;;5071155;28;20044;-70
2023/01/10 09:30:48;;;;;;;25.17;5.25;;;6.20;99.90;;;;;;5071449;28;20443;-70
2023/01/10 09:33:14;;;;;;;26.90;6.00;;;6.20;99.90;;;;;;5071141;28;20489;-70
2023/01/10 09:35:42;;;;;;;38.22;5.13;;;6.30;99.90;;;;;;5071129;28;20085;-70
2023/01/10 09:38:13;;;;;;;27.75;5.40;;;6.20;99.90;;;;;;5074078;28;20512;-70
2023/01/10 09:41:03;;;;;;;32.03;5.00;;;6.30;99.90;;;;;;5074617;28;20048;-70
2023/01/10 09:43:53;;;;;;;33.65;5.25;;;6.30;99.90;;;;;;5074800;28;20139;-70
2023/01/10 09:46:44;;;;;;;29.13;4.68;;;6.40;99.90;;;;;;5074740;28;20055;-70
2023/01/10 09:49:51;;;;;;;21.08;4.40;;;6.50;99.90;;;;;;5074065;28;20050;-70
2023/01/10 09:52:28;;;;;;;31.33;5.65;;;6.60;99.90;;;;;;5074442;28;20090;-70
2023/01/10 09:54:55;;;;;;;30.15;5.55;;;6.60;99.90;;;;;;5074581;28;20041;-70
2023/01/10 09:57:22;;;;;;;27.55;5.20;;;6.70;99.90;;;;;;5074521;28;20051;-70
2023/01/10 09:59:50;;;;;;;24.58;5.40;;;6.70;99.90;;;;;;5074500;28;20044;-70
2023/01/10 10:02:56;;;;;;;28.63;5.13;;;6.70;99.90;;;;;;5074440;28;20528;-70
2023/01/10 10:05:25;;;;;;;29.02;4.68;;;6.80;99.90;;;;;;5036831;28;20041;-70
2023/01/10 10:07:57;;;;;;;24.65;5.25;;;6.80;99.90;;;;;;5036373;28;20518;-70
2023/01/10 10:10:26;;;;;;;27.40;4.25;;;6.80;99.90;;;;;;5036652;28;20052;-70
2023/01/10 10:13:01;;;;;;;25.17;5.55;;;6.90;99.90;;;;;;5036669;28;20041;-70
2023/01/10 10:15:55;;;;;;;24.05;4.72;;;6.90;99.90;;;;;;5036655;28;20490;-70
2023/01/10 10:18:55;;;;;;;28.02;5.40;;;6.90;99.90;;;;;;5036362;28;20176;-70
2023/01/10 10:21:27;;;;;;;29.33;5.57;;;6.90;99.90;;;;;;5036358;28;20433;-70
2023/01/10 10:24:20;;;;;;;30.33;5.38;;;6.90;99.90;;;;;;5036659;28;20526;-70
2023/01/10 10:26:58;;;;;;;32.57;5.77;;;6.90;99.90;;;;;;5006512;28;20053;-70
2023/01/10 10:29:29;;;;;;;28.92;6.68;;;6.90;99.90;;;;;;5036086;28;20872;-70
2023/01/10 10:32:10;;;;;;;31.35;5.70;;;6.90;99.90;;;;;;5036386;28;20036;-70
2023/01/10 10:34:44;;;;;;;32.20;5.90;;;6.90;99.90;;;;;;5036617;28;20110;-70
2023/01/10 10:37:38;;;;;;;31.67;5.80;;;6.90;99.90;;;;;;5072043;28;20129;-70
2023/01/10 10:40:26;;;;;;;32.25;6.68;;;6.90;99.90;;;;;;5073565;28;20043;-70
2023/01/10 10:42:55;;;;;;;32.10;7.57;;;6.90;99.90;;;;;;5073337;28;20036;-70
2023/01/10 10:45:38;;;;;;;33.55;7.78;;;6.90;99.90;;;;;;5073366;28;20037;-70
2023/01/10 10:48:19;;;;;;;37.53;8.05;;;6.90;99.90;;;;;;5072551;28;20440;-70
2023/01/10 10:51:28;;;;;;;37.38;8.68;;;6.90;99.90;;;;;;5073296;28;20486;-70
2023/01/10 10:53:55;;;;;;;39.28;8.43;;;6.90;99.90;;;;;;5067966;28;20044;-70
2023/01/10 10:56:23;;;;;;;24.38;8.02;;;6.90;99.90;;;;;;5074386;28;20090;-70
2023/01/10 10:58:54;;;;;;;32.17;8.98;;;6.90;99.90;;;;;;5072995;28;20495;-70
2023/01/10 11:01:21;;;;;;;34.75;9.07;;;6.90;99.90;;;;;;5073068;28;20552;-70
2023/01/10 11:03:54;;;;;;;33.90;9.05;;;6.90;99.90;;;;;;5072976;28;20094;-70
2023/01/10 11:06:24;;;;;;;37.20;9.15;;;6.90;99.90;;;;;;5074486;28;20067;-69
2023/01/10 11:08:54;;;;;;;29.10;9.00;;;6.90;99.90;;;;;;5072846;28;20090;-69
2023/01/10 11:11:32;;;;;;;34.00;9.45;;;6.90;99.90;;;;;;5072813;28;20094;-69
2023/01/10 11:14:05;;;;;;;37.50;9.57;;;6.90;99.90;;;;;;5072922;28;20043;-69
2023/01/10 11:16:36;;;;;;;31.37;9.73;;;6.90;99.90;;;;;;5073059;28;20098;-69
2023/01/10 11:19:34;;;;;;;35.20;8.90;;;6.90;99.90;;;;;;5072659;28;20052;-70
2023/01/10 11:22:04;;;;;;;29.90;8.43;;;6.90;99.90;;;;;;5050697;28;20060;-70
2023/01/10 11:24:35;;;;;;;30.20;9.45;;;6.90;99.90;;;;;;5072602;28;20470;-70
2023/01/10 11:27:15;;;;;;;35.92;9.27;;;7.00;99.90;;;;;;5072580;28;20123;-70
2023/01/10 11:29:48;;;;;;;36.15;9.18;;;6.90;99.90;;;;;;5055872;28;20076;-70
2023/01/10 11:32:21;;;;;;;34.20;8.45;;;6.90;99.90;;;;;;5072485;28;20048;-70
2023/01/10 11:34:58;;;;;;;31.80;8.15;;;7.00;99.90;;;;;;5072650;28;20051;-70
2023/01/10 11:37:33;;;;;;;31.85;8.63;;;7.00;99.90;;;;;;5055966;28;20387;-69
2023/01/10 11:40:16;;;;;;;35.90;8.95;;;7.00;99.90;;;;;;5072332;28;20040;-70
2023/01/10 11:42:41;;;;;;;29.67;7.60;;;6.90;99.90;;;;;;5072304;28;20033;-70
2023/01/10 11:45:16;;;;;;;26.20;7.53;;;6.90;99.90;;;;;;5072241;28;20040;-71
2023/01/10 11:48:06;;;;;;;30.23;7.38;;;6.90;99.90;;;;;;5072018;28;20418;-70
2023/01/10 11:50:35;;;;;;;33.15;7.00;;;6.90;99.90;;;;;;5066847;28;20052;-70
2023/01/10 11:53:02;;;;;;;26.60;6.93;;;6.90;99.90;;;;;;5072122;28;20036;-70
2023/01/10 11:55:31;;;;;;;40.17;7.55;;;6.80;99.90;;;;;;5072074;28;20550;-70
2023/01/10 11:58:05;;;;;;;30.40;7.35;;;6.90;99.90;;;;;;5072058;28;20055;-70
2023/01/10 12:00:38;;;;;;;31.80;7.32;;;6.90;99.90;;;;;;5071136;28;20576;-70
2023/01/10 12:03:16;;;;;;;33.33;7.30;;;6.90;99.90;;;;;;5072045;28;20036;-70
2023/01/10 12:05:50;;;;;;;39.10;6.85;;;6.90;99.90;;;;;;5055311;28;20512;-70
2023/01/10 12:08:32;;;;;;;27.50;6.88;;;6.90;99.90;;;;;;5071838;28;20497;-70
2023/01/10 12:11:06;;;;;;;30.23;6.80;;;6.90;99.90;;;;;;5072023;28;20033;-70
2023/01/10 12:13:47;;;;;;;31.13;6.28;;;6.80;99.90;;;;;;5071826;28;20098;-69
2023/01/10 12:16:20;;;;;;;33.83;6.90;;;6.80;99.90;;;;;;5071839;28;20127;-70
2023/01/10 12:18:47;;;;;;;32.10;5.88;;;6.80;99.90;;;;;;5072076;28;20045;-69
2023/01/10 12:21:16;;;;;;;27.58;5.88;;;6.80;99.90;;;;;;5071777;28;20409;-69
2023/01/10 12:23:43;;;;;;;25.20;5.50;;;6.80;99.90;;;;;;5072031;28;20044;-69
2023/01/10 12:26:12;;;;;;;27.42;5.68;;;6.80;99.90;;;;;;5072103;28;20070;-70
2023/01/10 12:29:00;;;;;;;24.35;6.32;;;6.80;99.90;;;;;;5071802;28;20095;-70
2023/01/10 12:31:27;;;;;;;32.72;6.97;;;6.80;99.90;;;;;;5071937;28;20043;-70
2023/01/10 12:33:58;;;;;;;27.63;5.72;;;6.80;99.90;;;;;;5071643;28;20404;-70
2023/01/10 12:36:41;;;;;;;27.98;5.72;;;6.80;99.90;;;;;;5071705;28;20127;-70
2023/01/10 12:39:23;;;;;;;32.03;7.13;;;6.90;99.90;;;;;;5071621;28;20044;-70
2023/01/10 12:44:51;;;;;;;30.65;6.10;;;6.90;99.90;;;;;;5071605;28;20052;-70
2023/01/10 12:47:33;;;;;;;28.23;6.03;;;6.80;99.90;;;;;;5071469;28;20466;-70
2023/01/10 12:50:12;;;;;;;27.38;5.72;;;6.80;99.90;;;;;;5071435;28;20416;-70
2023/01/10 12:52:47;;;;;;;30.27;5.85;;;6.80;99.90;;;;;;5071537;28;20469;-70
2023/01/10 12:55:26;;;;;;;33.00;6.63;;;6.80;99.90;;;;;;5071535;28;20040;-70
2023/01/10 12:58:02;;;;;;;27.15;6.13;;;6.80;99.90;;;;;;5071382;28;20128;-70
2023/01/10 13:00:42;;;;;;;27.98;6.25;;;6.80;99.90;;;;;;5071442;28;20040;-70
2023/01/10 13:03:20;;;;;;;33.40;7.20;;;6.80;99.90;;;;;;5071659;28;20059;-70
2023/01/10 13:05:48;;;;;;;29.40;6.78;;;6.70;99.90;;;;;;5071457;28;20082;-70
2023/01/10 13:08:17;;;;;;;28.75;6.70;;;6.80;99.90;;;;;;5071246;28;20044;-70
2023/01/10 13:10:48;;;;;;;32.75;7.57;;;6.80;99.90;;;;;;5071558;28;20569;-70
2023/01/10 13:13:36;;;;;;;32.13;6.43;;;6.70;99.90;;;;;;5074792;28;20505;-70
2023/01/10 13:16:17;;;;;;;29.45;6.28;;;6.80;99.90;;;;;;5075073;28;20094;-70
2023/01/10 13:19:04;;;;;;;28.52;6.53;;;6.70;99.90;;;;;;5076209;28;20055;-70